Time;durP1;ratioP1;P1;durP2;ratioP2;P2;SDS_P1;SDS_P2;PMS_P1;PMS_P2;Temp;Humidity;BMP_temperature;BMP_pressure;BME280_temperature;BME280_humidity;BME280_pressure;Samples;Min_cycle;Max_cycle;Signal;HPM_P1;HPM_P2
2021/10/24 00:02:03;;;;;;;8.05;5.47;;;;;;;2.26;97.73;96843.16;5052940;28;24446;-73
2021/10/24 00:04:29;;;;;;;7.28;5.88;;;;;;;2.25;97.67;96836.34;5053081;28;24481;-73
2021/10/24 00:06:57;;;;;;;11.20;6.13;;;;;;;2.30;95.85;96837.13;5053006;28;24442;-73
2021/10/24 00:09:23;;;;;;;8.80;5.25;;;;;;;2.37;93.85;96841.28;5053224;28;24441;-73
2021/10/24 00:11:50;;;;;;;7.95;5.53;;;;;;;2.48;92.38;96839.44;5052740;28;24801;-73
2021/10/24 00:14:16;;;;;;;8.68;5.10;;;;;;;2.20;95.53;96838.13;5053205;28;24435;-73
2021/10/24 00:16:43;;;;;;;8.15;5.45;;;;;;;2.09;97.28;96844.22;5052324;28;24874;-73
2021/10/24 00:19:09;;;;;;;9.43;5.90;;;;;;;2.08;98.53;96842.53;5052584;28;24499;-73
2021/10/24 00:21:35;;;;;;;7.53;5.30;;;;;;;2.09;98.38;96845.94;5052804;28;24481;-73
2021/10/24 00:24:04;;;;;;;9.43;5.57;;;;;;;2.23;96.04;96841.50;5053085;28;24941;-73
2021/10/24 00:26:30;;;;;;;6.50;5.30;;;;;;;2.22;94.53;96844.06;5052548;28;24434;-73
2021/10/24 00:28:57;;;;;;;6.53;4.78;;;;;;;2.10;96.14;96833.13;5052963;28;24439;-73
2021/10/24 00:31:24;;;;;;;8.18;4.93;;;;;;;1.92;96.11;96830.78;5052418;28;25019;-73
2021/10/24 00:33:51;;;;;;;9.15;5.55;;;;;;;2.01;95.08;96834.97;5052685;28;24467;-73
2021/10/24 00:36:17;;;;;;;7.53;5.65;;;;;;;1.98;96.62;96827.31;5052601;28;24485;-73
2021/10/24 00:38:44;;;;;;;10.48;6.40;;;;;;;2.01;97.01;96825.59;5052527;28;24439;-73
2021/10/24 00:41:11;;;;;;;8.43;5.82;;;;;;;1.99;97.82;96827.28;5052367;28;25196;-73
2021/10/24 00:43:38;;;;;;;9.80;6.05;;;;;;;2.02;96.93;96817.03;5051530;28;24431;-73
2021/10/24 00:46:05;;;;;;;9.18;5.68;;;;;;;1.98;96.51;96822.22;5044496;28;24878;-73
2021/10/24 00:48:31;;;;;;;8.18;5.22;;;;;;;1.91;97.80;96818.88;5042553;28;24489;-73
2021/10/24 00:50:58;;;;;;;7.60;5.10;;;;;;;1.97;98.56;96817.97;5052095;28;24455;-73
2021/10/24 00:53:25;;;;;;;6.60;4.67;;;;;;;1.97;98.38;96813.72;5050982;28;24439;-73
2021/10/24 00:55:51;;;;;;;5.22;4.20;;;;;;;2.01;97.54;96812.81;5052183;28;24438;-73
2021/10/24 00:58:20;;;;;;;6.10;4.22;;;;;;;1.98;98.13;96810.28;5051574;28;24496;-73
2021/10/24 01:00:47;;;;;;;6.80;4.55;;;;;;;1.96;97.67;96806.88;5052403;28;24433;-73
2021/10/24 01:03:13;;;;;;;5.45;3.97;;;;;;;1.76;97.37;96804.59;5051892;28;24435;-73
2021/10/24 01:05:40;;;;;;;5.95;4.60;;;;;;;1.70;97.08;96799.53;5051443;28;24443;-73
2021/10/24 01:08:09;;;;;;;6.65;4.03;;;;;;;1.80;97.79;96790.06;5052006;28;24538;-73
2021/10/24 01:10:37;;;;;;;5.70;4.28;;;;;;;1.84;97.05;96795.13;5051756;28;24452;-73
2021/10/24 01:13:04;;;;;;;5.30;4.15;;;;;;;1.83;94.67;96798.53;5052579;28;24509;-73
2021/10/24 01:15:32;;;;;;;5.78;4.35;;;;;;;1.77;95.97;96790.09;5051846;28;24431;-73
2021/10/24 01:17:59;;;;;;;6.55;4.38;;;;;;;1.75;96.27;96784.19;5051140;28;24439;-73
2021/10/24 01:20:28;;;;;;;7.65;4.30;;;;;;;1.77;96.17;96790.09;5050496;28;24431;-73
2021/10/24 01:22:57;;;;;;;6.00;3.97;;;;;;;1.95;89.64;96782.22;5050918;28;24439;-73
2021/10/24 01:25:24;;;;;;;3.92;3.42;;;;;;;1.81;89.49;96784.94;5051574;28;24446;-73
2021/10/24 01:27:51;;;;;;;8.57;4.15;;;;;;;1.45;92.04;96784.50;5051352;28;24446;-73
2021/10/24 01:30:18;;;;;;;5.78;4.00;;;;;;;1.46;93.58;96782.81;5051374;28;25075;-73
2021/10/24 01:32:46;;;;;;;6.13;4.13;;;;;;;1.44;94.74;96780.25;5051653;28;24435;-73
2021/10/24 01:35:12;;;;;;;9.27;4.80;;;;;;;1.35;95.88;96780.34;5050869;28;24438;-73
2021/10/24 01:37:41;;;;;;;5.53;4.38;;;;;;;1.28;97.60;96781.28;5050886;28;24442;-73
2021/10/24 01:40:11;;;;;;;9.23;4.45;;;;;;;1.32;95.88;96772.72;5051316;28;24489;-73
2021/10/24 01:42:49;;;;;;;7.00;4.18;;;;;;;1.25;96.65;96776.19;5051295;28;25001;-73
2021/10/24 01:45:17;;;;;;;6.45;4.28;;;;;;;1.28;96.96;96767.69;5044951;28;24439;-73
2021/10/24 01:47:44;;;;;;;8.32;4.60;;;;;;;1.31;98.15;96765.94;5050681;28;25019;-73
2021/10/24 01:50:10;;;;;;;6.22;4.25;;;;;;;1.42;96.50;96770.94;5051129;28;24474;-73
2021/10/24 01:52:42;;;;;;;6.30;3.97;;;;;;;1.60;94.98;96767.34;5051456;28;24443;-73
2021/10/24 01:55:11;;;;;;;9.90;4.53;;;;;;;1.44;94.06;96767.47;5043453;28;25069;-74
2021/10/24 01:57:38;;;;;;;5.95;4.20;;;;;;;1.26;96.27;96761.72;5051343;28;24454;-74
2021/10/24 02:00:05;;;;;;;6.32;4.47;;;;;;;1.23;97.28;96762.63;5051601;28;24488;-74
2021/10/24 02:02:33;;;;;;;8.02;4.28;;;;;;;1.13;97.68;96758.47;5051525;28;24422;-74
2021/10/24 02:04:59;;;;;;;6.28;4.20;;;;;;;1.20;98.51;96757.56;5051624;28;24488;-74
2021/10/24 02:07:26;;;;;;;10.68;5.07;;;;;;;1.31;98.12;96757.44;5051381;28;24465;-74
2021/10/24 02:09:53;;;;;;;6.20;4.40;;;;;;;1.29;96.59;96756.59;5051007;28;24979;-74
2021/10/24 02:12:21;;;;;;;8.30;4.20;;;;;;;1.25;96.95;96750.69;5051334;28;24427;-74
2021/10/24 02:14:48;;;;;;;8.88;4.43;;;;;;;1.29;97.07;96751.50;5051201;28;24436;-74
2021/10/24 02:17:14;;;;;;;6.68;4.15;;;;;;;1.31;96.05;96747.22;5050636;28;24439;-74
2021/10/24 02:19:41;;;;;;;7.53;4.63;;;;;;;1.33;96.19;96746.34;5046389;28;24521;-74
2021/10/24 02:22:07;;;;;;;4.70;3.63;;;;;;;1.33;96.63;96735.28;5031273;28;24419;-74
2021/10/24 02:24:34;;;;;;;3.63;3.30;;;;;;;1.36;95.82;96738.66;5050827;28;24817;-74
2021/10/24 02:27:00;;;;;;;6.65;4.18;;;;;;;1.39;94.87;96740.34;5050767;28;25002;-74
2021/10/24 02:29:28;;;;;;;4.68;3.72;;;;;;;1.36;95.39;96735.25;5050895;28;24419;-74
2021/10/24 02:31:54;;;;;;;5.70;3.53;;;;;;;1.35;94.83;96733.56;5050832;28;24529;-74
2021/10/24 02:34:21;;;;;;;5.07;3.72;;;;;;;1.26;94.53;96733.66;5050645;28;24431;-74
2021/10/24 02:36:47;;;;;;;4.05;3.60;;;;;;;1.34;95.15;96732.72;5050922;28;24440;-74
2021/10/24 02:39:14;;;;;;;6.10;3.53;;;;;;;1.23;95.44;96733.72;5051003;28;24423;-75
2021/10/24 02:41:40;;;;;;;3.38;3.03;;;;;;;1.23;95.48;96726.91;5052162;28;24476;-74
2021/10/24 02:44:07;;;;;;;4.38;3.22;;;;;;;1.17;95.36;96727.81;5051859;28;24844;-74
2021/10/24 02:46:34;;;;;;;4.22;3.33;;;;;;;1.15;95.04;96726.13;5051525;28;24836;-75
2021/10/24 02:49:01;;;;;;;4.32;3.30;;;;;;;1.11;94.95;96721.91;5051087;28;24435;-74
2021/10/24 02:51:27;;;;;;;7.90;3.83;;;;;;;1.11;94.05;96722.78;5050504;28;24439;-74
2021/10/24 02:53:54;;;;;;;6.53;4.07;;;;;;;0.98;94.59;96721.19;5050625;28;24493;-74
2021/10/24 02:56:20;;;;;;;4.65;3.60;;;;;;;0.87;94.33;96723.84;5050675;28;24797;-74
2021/10/24 02:58:47;;;;;;;5.05;4.05;;;;;;;0.99;92.96;96727.97;5050640;28;24435;-74
2021/10/24 03:01:13;;;;;;;6.03;4.22;;;;;;;1.04;92.45;96720.28;5050692;28;24481;-74
2021/10/24 03:03:41;;;;;;;6.93;4.77;;;;;;;0.95;94.36;96723.78;5050850;28;24431;-74
2021/10/24 03:06:07;;;;;;;5.75;4.28;;;;;;;0.73;97.79;96723.13;5050246;28;24944;-74
2021/10/24 03:08:34;;;;;;;5.78;4.15;;;;;;;0.67;97.96;96721.50;5052717;28;24423;-74
2021/10/24 03:11:00;;;;;;;5.30;4.10;;;;;;;0.66;98.90;96724.88;5054714;28;24450;-73
2021/10/24 03:13:27;;;;;;;6.60;4.40;;;;;;;0.71;98.48;96723.16;5054684;28;24501;-74
2021/10/24 03:15:54;;;;;;;4.87;4.17;;;;;;;0.78;97.70;96720.53;5054482;28;24766;-74
2021/10/24 03:18:20;;;;;;;9.10;4.55;;;;;;;0.82;97.44;96710.31;5054092;28;24526;-74
2021/10/24 03:20:48;;;;;;;7.20;4.22;;;;;;;0.83;97.86;96712.00;5054593;28;24441;-74
2021/10/24 03:23:15;;;;;;;5.85;3.92;;;;;;;0.83;97.49;96721.34;5054548;28;24461;-74
2021/10/24 03:25:41;;;;;;;5.47;3.78;;;;;;;0.86;96.97;96706.03;5054424;28;24434;-74
2021/10/24 03:28:08;;;;;;;6.20;3.65;;;;;;;0.90;97.13;96717.88;5054367;28;24453;-74
2021/10/24 03:30:34;;;;;;;7.30;3.30;;;;;;;0.98;96.28;96708.44;5054291;28;24852;-74
2021/10/24 03:33:01;;;;;;;6.43;3.47;;;;;;;0.98;96.19;96711.00;5054369;28;24797;-74
2021/10/24 03:35:27;;;;;;;3.50;3.20;;;;;;;0.98;96.85;96710.16;5054238;28;24496;-74
2021/10/24 03:37:55;;;;;;;3.53;3.10;;;;;;;0.98;96.66;96716.09;5053936;28;24485;-74
2021/10/24 03:40:21;;;;;;;4.00;3.60;;;;;;;0.89;96.97;96709.41;5053798;28;24438;-74
2021/10/24 03:42:48;;;;;;;13.02;2.90;;;;;;;0.70;97.31;96724.03;5054228;28;24825;-74
2021/10/24 03:45:15;;;;;;;22.42;2.92;;;;;;;0.35;99.93;96720.91;5053939;28;24427;-74
2021/10/24 03:47:41;;;;;;;34.97;2.58;;;;;;;0.18;100.00;96721.84;5053741;28;24984;-74
2021/10/24 03:50:08;;;;;;;2.90;2.53;;;;;;;0.08;100.00;96722.78;5054120;28;24785;-74
2021/10/24 03:52:35;;;;;;;5.57;2.50;;;;;;;0.24;100.00;96728.63;5053913;28;24469;-74
2021/10/24 03:55:09;;;;;;;2.67;2.45;;;;;;;0.33;100.00;96723.44;5053968;28;24423;-74
2021/10/24 03:57:36;;;;;;;4.40;2.70;;;;;;;0.36;100.00;96722.59;5053604;28;24808;-74
2021/10/24 04:00:03;;;;;;;2.63;2.28;;;;;;;0.39;100.00;96720.03;5053759;28;24466;-74
2021/10/24 04:02:29;;;;;;;3.67;2.70;;;;;;;0.37;100.00;96726.81;5053768;28;24423;-74
2021/10/24 04:04:55;;;;;;;3.60;2.60;;;;;;;0.38;100.00;96728.53;5053731;28;24427;-74
2021/10/24 04:07:22;;;;;;;3.60;2.60;;;;;;;0.42;100.00;96730.19;5053369;28;24980;-74
2021/10/24 04:09:48;;;;;;;2.97;2.60;;;;;;;0.50;100.00;96725.88;5053699;28;24424;-74
2021/10/24 04:12:16;;;;;;;2.70;2.50;;;;;;;0.57;99.17;96727.53;5053491;28;24497;-74
2021/10/24 04:14:43;;;;;;;3.42;2.60;;;;;;;0.63;97.87;96737.69;5053472;28;24427;-74
2021/10/24 04:17:09;;;;;;;2.80;2.28;;;;;;;0.55;97.17;96731.78;5053215;28;24481;-74
2021/10/24 04:19:35;;;;;;;3.03;2.72;;;;;;;0.60;94.74;96735.16;5053240;28;24485;-74
2021/10/24 04:22:02;;;;;;;3.60;3.25;;;;;;;0.45;95.97;96728.47;5053123;28;24976;-74
2021/10/24 04:24:29;;;;;;;3.55;3.20;;;;;;;0.44;97.05;96724.22;5053160;28;24600;-74
2021/10/24 04:26:56;;;;;;;4.90;3.33;;;;;;;0.47;96.46;96723.34;5053026;28;24980;-74
2021/10/24 04:29:24;;;;;;;3.53;3.20;;;;;;;0.46;96.46;96727.59;5053237;28;24482;-73
2021/10/24 04:31:51;;;;;;;3.72;3.40;;;;;;;0.47;96.74;96724.19;5053092;28;24439;-74
2021/10/24 04:34:17;;;;;;;5.40;3.75;;;;;;;0.53;96.24;96718.22;5052991;28;24418;-74
2021/10/24 04:36:44;;;;;;;4.77;4.13;;;;;;;0.46;96.75;96721.66;5053041;28;24476;-74
2021/10/24 04:39:10;;;;;;;9.10;3.55;;;;;;;0.46;96.84;96717.41;5053205;28;24431;-74
2021/10/24 04:41:38;;;;;;;6.75;3.55;;;;;;;0.50;97.30;96723.34;5052900;28;24446;-74
2021/10/24 04:44:04;;;;;;;6.43;3.30;;;;;;;0.30;97.92;96717.53;5053016;28;24430;-74
2021/10/24 04:46:32;;;;;;;6.75;3.10;;;;;;;0.08;100.00;96722.78;5052929;28;24438;-74
2021/10/24 04:48:59;;;;;;;14.60;2.97;;;;;;;0.07;100.00;96718.53;5052896;28;24442;-74
2021/10/24 04:51:25;;;;;;;4.07;3.30;;;;;;;0.14;100.00;96722.72;5052874;28;24501;-74
2021/10/24 04:53:52;;;;;;;6.70;2.80;;;;;;;0.03;100.00;96719.41;5052809;28;24416;-74
2021/10/24 04:56:18;;;;;;;4.30;2.87;;;;;;;0.07;100.00;96713.44;5052454;28;24511;-74
2021/10/24 04:58:45;;;;;;;4.13;2.53;;;;;;;0.12;100.00;96716.81;5052713;28;24817;-74
2021/10/24 05:01:11;;;;;;;3.00;2.70;;;;;;;0.16;100.00;96723.59;5052440;28;24949;-74
2021/10/24 05:03:39;;;;;;;3.00;2.67;;;;;;;0.29;100.00;96715.84;5052385;28;24489;-73
2021/10/24 05:06:06;;;;;;;9.68;2.88;;;;;;;0.26;99.16;96710.78;5052470;28;24422;-74
2021/10/24 05:08:33;;;;;;;4.40;3.00;;;;;;;0.25;98.25;96715.03;5052207;28;24806;-76
2021/10/24 05:10:59;;;;;;;3.10;2.80;;;;;;;0.23;98.65;96706.56;5052295;28;24435;-75
2021/10/24 05:13:26;;;;;;;3.10;2.80;;;;;;;0.27;98.90;96700.59;5051851;28;24482;-75
2021/10/24 05:15:52;;;;;;;3.67;3.30;;;;;;;0.32;97.26;96714.13;5051718;28;24481;-74
2021/10/24 05:18:18;;;;;;;4.50;4.05;;;;;;;0.35;98.31;96706.47;5051824;28;24485;-74
2021/10/24 05:20:46;;;;;;;5.15;4.10;;;;;;;0.35;98.95;96705.63;5052149;28;24407;-74
2021/10/24 05:23:13;;;;;;;4.30;3.85;;;;;;;0.44;99.72;96708.09;5051765;28;24821;-74
2021/10/24 05:25:39;;;;;;;3.33;3.03;;;;;;;0.28;100.00;96709.06;5051857;28;24971;-74
2021/10/24 05:28:06;;;;;;;4.40;3.53;;;;;;;0.33;99.56;96710.72;5052020;28;24481;-74
2021/10/24 05:30:33;;;;;;;3.55;3.13;;;;;;;0.23;99.82;96699.75;5051238;28;24523;-75
2021/10/24 05:32:59;;;;;;;3.80;3.30;;;;;;;0.30;100.00;96700.56;5051665;28;24455;-74
2021/10/24 05:35:26;;;;;;;4.25;3.85;;;;;;;0.30;100.00;96702.25;5051150;28;24435;-73
2021/10/24 05:37:54;;;;;;;6.82;5.47;;;;;;;0.31;100.00;96693.75;5051436;28;24443;-73
2021/10/24 05:40:20;;;;;;;7.43;6.18;;;;;;;0.28;100.00;96696.31;5051588;28;24558;-74
2021/10/24 05:42:47;;;;;;;19.77;14.45;;;;;;;0.27;100.00;96698.03;5051418;28;24438;-74
2021/10/24 05:45:13;;;;;;;18.40;12.60;;;;;;;0.17;99.11;96687.06;5051309;28;24836;-70
2021/10/24 05:47:40;;;;;;;6.60;5.00;;;;;;;0.16;100.00;96692.19;5051474;28;24439;-74
2021/10/24 05:50:07;;;;;;;10.00;6.32;;;;;;;0.21;100.00;96687.88;5057858;28;24435;-74
2021/10/24 05:52:33;;;;;;;7.53;6.43;;;;;;;0.15;99.81;96691.34;5060049;28;24447;-74
2021/10/24 05:55:01;;;;;;;11.52;6.75;;;;;;;0.16;99.05;96687.91;5055273;28;24816;-75
2021/10/24 05:57:27;;;;;;;5.78;4.88;;;;;;;0.14;97.77;96684.53;5051657;28;24431;-74
2021/10/24 05:59:54;;;;;;;5.88;4.82;;;;;;;0.13;96.96;96690.50;5051700;28;24427;-75
2021/10/24 06:02:20;;;;;;;6.53;4.82;;;;;;;0.11;96.82;96686.25;5051647;28;24477;-74
2021/10/24 06:04:46;;;;;;;6.00;4.23;;;;;;;0.08;97.20;96694.78;5051192;28;24588;-74
2021/10/24 06:07:13;;;;;;;4.45;3.30;;;;;;;-0.03;97.17;96694.00;5051224;28;24423;-68
2021/10/24 06:09:42;;;;;;;3.50;3.20;;;;;;;0.05;99.44;96692.25;5051031;28;25089;-74
2021/10/24 06:12:14;;;;;;;4.28;3.67;;;;;;;0.08;99.37;96693.94;5050802;28;24848;-74
2021/10/24 06:14:42;;;;;;;6.23;4.40;;;;;;;0.13;100.00;96698.13;5050923;28;24964;-72
2021/10/24 06:17:08;;;;;;;4.18;3.45;;;;;;;0.23;96.64;96697.22;5055250;28;24466;-75
2021/10/24 06:19:35;;;;;;;4.70;3.40;;;;;;;0.16;95.67;96703.22;5051077;28;24483;-75
2021/10/24 06:22:02;;;;;;;4.35;3.42;;;;;;;0.09;96.74;96710.91;5051777;28;24543;-74
2021/10/24 06:24:28;;;;;;;4.13;3.45;;;;;;;0.08;97.31;96707.50;5051176;28;24446;-75
2021/10/24 06:26:55;;;;;;;5.50;3.75;;;;;;;0.12;97.08;96713.44;5045764;28;24432;-74
2021/10/24 06:29:22;;;;;;;3.88;3.30;;;;;;;0.15;98.08;96716.81;5040502;28;24845;-74
2021/10/24 06:31:49;;;;;;;3.95;3.55;;;;;;;0.26;97.60;96708.22;5033001;28;24444;-75
2021/10/24 06:34:15;;;;;;;7.68;5.25;;;;;;;0.33;97.72;96709.88;5042184;28;24486;-75
2021/10/24 06:36:42;;;;;;;10.27;7.45;;;;;;;0.47;97.02;96710.59;5043826;28;24489;-75
2021/10/24 06:39:08;;;;;;;8.25;5.80;;;;;;;0.55;96.81;96713.94;5032362;28;25039;-75
2021/10/24 06:41:35;;;;;;;7.32;5.55;;;;;;;0.61;97.78;96713.88;5033041;28;24438;-74
2021/10/24 06:44:01;;;;;;;15.80;9.80;;;;;;;0.71;97.01;96712.13;5042430;28;24432;-74
2021/10/24 06:46:29;;;;;;;17.50;11.60;;;;;;;0.86;97.16;96706.03;5035734;28;24439;-74
2021/10/24 06:48:56;;;;;;;16.27;9.43;;;;;;;0.98;97.42;96713.56;5042214;28;24443;-74
2021/10/24 06:51:22;;;;;;;9.48;7.05;;;;;;;1.17;96.79;96707.38;5049332;28;24447;-75
2021/10/24 06:53:49;;;;;;;24.48;18.60;;;;;;;1.16;96.59;96709.97;5047030;28;24435;-74
2021/10/24 06:56:15;;;;;;;20.75;15.75;;;;;;;1.37;96.42;96708.88;5042206;28;24779;-74
2021/10/24 06:58:42;;;;;;;10.02;8.20;;;;;;;1.57;95.79;96706.09;5051141;28;25046;-75
2021/10/24 07:01:08;;;;;;;7.50;5.53;;;;;;;1.86;95.00;96708.28;5051509;28;24481;-75
2021/10/24 07:03:36;;;;;;;6.10;4.70;;;;;;;2.10;93.77;96717.28;5049649;28;24511;-75
2021/10/24 07:06:03;;;;;;;4.28;3.42;;;;;;;2.28;92.97;96703.41;5045428;28;24620;-75
2021/10/24 07:08:29;;;;;;;5.90;3.75;;;;;;;2.38;91.78;96707.50;5050403;28;24435;-75
2021/10/24 07:10:55;;;;;;;4.53;3.72;;;;;;;2.33;92.76;96701.59;5049508;28;24858;-74
2021/10/24 07:13:22;;;;;;;5.07;3.88;;;;;;;2.09;93.15;96706.22;5039701;28;24806;-75
2021/10/24 07:15:48;;;;;;;5.05;3.70;;;;;;;2.22;95.59;96701.75;5032672;28;25051;-75
2021/10/24 07:18:15;;;;;;;6.40;3.50;;;;;;;2.40;94.91;96701.47;5042261;28;24443;-75
2021/10/24 07:20:42;;;;;;;4.13;3.60;;;;;;;2.04;94.45;96702.03;5046206;28;24442;-75
2021/10/24 07:23:09;;;;;;;6.60;3.87;;;;;;;2.23;97.33;96693.25;5036126;28;24546;-75
2021/10/24 07:25:35;;;;;;;6.33;3.70;;;;;;;2.49;93.71;96699.66;5044334;28;24431;-75
2021/10/24 07:28:02;;;;;;;4.30;3.60;;;;;;;2.56;95.53;96691.88;5035258;28;24451;-76
2021/10/24 07:30:28;;;;;;;9.13;4.13;;;;;;;2.79;94.17;96699.16;5048239;28;24845;-76
2021/10/24 07:32:55;;;;;;;6.05;3.88;;;;;;;3.17;94.59;96695.03;5048426;28;25017;-76
2021/10/24 07:35:22;;;;;;;7.88;4.00;;;;;;;3.01;92.59;96702.19;5051963;28;24423;-74
2021/10/24 07:37:50;;;;;;;8.13;4.43;;;;;;;3.01;92.18;96703.91;5050123;28;24459;-74
2021/10/24 07:40:19;;;;;;;5.75;4.18;;;;;;;2.91;94.52;96696.38;5043484;28;24431;-75
2021/10/24 07:42:45;;;;;;;6.77;4.10;;;;;;;3.00;96.02;96700.47;5040207;28;24459;-75
2021/10/24 07:45:12;;;;;;;6.75;4.10;;;;;;;3.49;94.48;96707.25;5036476;28;24823;-75
2021/10/24 07:47:39;;;;;;;8.02;4.43;;;;;;;3.90;92.48;96705.53;5036299;28;24440;-76
2021/10/24 07:50:09;;;;;;;7.18;5.40;;;;;;;3.87;91.23;96703.88;5047412;28;24442;-78
2021/10/24 07:52:36;;;;;;;11.43;4.72;;;;;;;3.76;90.64;96705.81;5039989;28;24514;-74
2021/10/24 07:55:05;;;;;;;5.85;4.72;;;;;;;4.05;91.38;96701.78;5047106;28;25015;-80
2021/10/24 07:57:31;;;;;;;10.50;6.30;;;;;;;3.49;92.50;96706.41;5035255;28;24450;-74
2021/10/24 07:59:58;;;;;;;7.93;5.43;;;;;;;3.63;94.08;96700.13;5034650;28;24443;-74
2021/10/24 08:02:24;;;;;;;9.07;4.97;;;;;;;4.05;92.36;96700.06;5040200;28;25012;-71
2021/10/24 08:04:50;;;;;;;8.00;4.28;;;;;;;3.58;95.02;96695.94;5053253;28;24427;-75
2021/10/24 08:07:18;;;;;;;5.07;4.00;;;;;;;3.60;96.04;96697.63;5054590;28;24991;-75
2021/10/24 08:09:45;;;;;;;6.35;4.60;;;;;;;3.54;96.03;96700.28;5054318;28;24419;-74
2021/10/24 08:12:13;;;;;;;6.40;4.80;;;;;;;3.58;96.47;96706.19;5053866;28;24972;-74
2021/10/24 08:14:40;;;;;;;5.80;4.07;;;;;;;4.27;98.06;96708.13;5053975;28;24426;-74
2021/10/24 08:17:07;;;;;;;6.95;4.57;;;;;;;4.64;93.52;96703.84;5053976;28;25023;-74
2021/10/24 08:19:34;;;;;;;6.20;4.30;;;;;;;4.56;91.52;96693.75;5054047;28;24561;-75
2021/10/24 08:22:01;;;;;;;5.53;4.03;;;;;;;4.35;93.55;96695.97;5053907;28;24472;-74
2021/10/24 08:24:28;;;;;;;7.60;4.53;;;;;;;4.30;96.00;96692.66;5053730;28;24431;-74
2021/10/24 08:26:55;;;;;;;9.18;4.57;;;;;;;4.47;94.72;96694.81;5053971;28;24875;-75
2021/10/24 08:29:23;;;;;;;6.90;4.07;;;;;;;4.62;96.50;96691.03;5054012;28;24431;-74
2021/10/24 08:31:52;;;;;;;5.10;4.05;;;;;;;4.93;93.33;96685.13;5054069;28;24817;-74
2021/10/24 08:34:18;;;;;;;7.60;4.43;;;;;;;5.58;93.15;96688.47;5054421;28;24439;-75
2021/10/24 08:36:45;;;;;;;9.23;5.25;;;;;;;6.15;90.92;96688.56;5053614;28;24974;-74
2021/10/24 08:39:12;;;;;;;12.23;5.30;;;;;;;6.55;88.07;96689.00;5053658;28;25051;-74
2021/10/24 08:41:40;;;;;;;12.13;5.37;;;;;;;6.45;85.30;96687.63;5053537;28;24974;-74
2021/10/24 08:44:07;;;;;;;7.35;4.50;;;;;;;6.31;87.35;96684.66;5054066;28;24435;-74
2021/10/24 08:46:35;;;;;;;7.10;5.18;;;;;;;6.94;86.87;96691.16;5053270;28;24422;-74
2021/10/24 08:49:01;;;;;;;7.20;5.23;;;;;;;7.38;84.14;96695.66;5053704;28;24501;-74
2021/10/24 08:51:30;;;;;;;10.40;5.33;;;;;;;6.84;84.35;96694.09;5054057;28;24411;-74
2021/10/24 08:53:57;;;;;;;8.35;5.30;;;;;;;7.20;85.68;96689.44;5053984;28;24439;-75
2021/10/24 08:56:26;;;;;;;8.00;5.07;;;;;;;7.21;82.95;96693.69;5054232;28;24969;-75
2021/10/24 08:58:53;;;;;;;9.45;5.15;;;;;;;7.05;83.48;96690.81;5054579;28;24431;-75
2021/10/24 09:01:20;;;;;;;6.97;4.57;;;;;;;7.01;85.32;96687.50;5053865;28;24430;-75
2021/10/24 09:06:49;;;;;;;8.80;4.97;;;;;;;6.84;86.96;96683.81;5109562;27;20719;-74
2021/10/24 09:09:17;;;;;;;8.40;4.47;;;;;;;7.03;85.98;96685.69;5109514;28;24414;-74
2021/10/24 09:11:52;;;;;;;8.90;4.30;;;;;;;7.33;83.71;96676.97;5109266;28;24483;-74
2021/10/24 09:14:37;;;;;;;7.13;4.83;;;;;;;7.42;84.30;96682.63;5109514;28;24480;-74
2021/10/24 09:17:04;;;;;;;6.25;4.75;;;;;;;8.11;83.78;96680.06;5108802;28;24422;-74
2021/10/24 09:19:34;;;;;;;7.55;4.68;;;;;;;8.06;81.38;96679.41;5109131;28;24433;-74
2021/10/24 09:22:15;;;;;;;8.25;4.80;;;;;;;8.42;79.67;96677.19;5108052;28;24422;-75
2021/10/24 09:25:00;;;;;;;7.40;4.57;;;;;;;7.96;80.16;96678.91;5107901;28;24533;-75
2021/10/24 09:27:27;;;;;;;7.95;4.90;;;;;;;8.25;79.53;96677.78;5108251;28;24429;-74
2021/10/24 09:29:54;;;;;;;6.70;4.30;;;;;;;8.39;80.75;96676.44;5107990;28;21287;-74
2021/10/24 09:32:21;;;;;;;11.85;4.65;;;;;;;8.92;77.56;96671.69;5107927;28;20769;-75
2021/10/24 09:35:02;;;;;;;6.80;4.22;;;;;;;8.96;75.71;96669.81;5108124;28;20812;-74
2021/10/24 09:37:30;;;;;;;6.05;4.28;;;;;;;9.07;75.43;96677.09;5107954;28;20775;-75
2021/10/24 09:39:56;;;;;;;8.13;4.15;;;;;;;8.69;77.15;96670.03;5107952;28;20792;-75
2021/10/24 09:42:25;;;;;;;6.82;4.20;;;;;;;8.52;76.77;96661.31;5107568;28;24965;-74
2021/10/24 09:45:04;;;;;;;5.90;4.25;;;;;;;8.54;76.73;96673.25;5107379;28;20865;-74
2021/10/24 09:47:31;;;;;;;7.78;4.35;;;;;;;8.89;74.76;96673.53;5108040;28;20742;-74
2021/10/24 09:49:58;;;;;;;5.60;4.18;;;;;;;9.37;74.10;96668.03;5107875;28;24422;-75
2021/10/24 09:52:25;;;;;;;8.00;4.20;;;;;;;9.70;71.53;96676.03;5107720;28;24449;-75
2021/10/24 09:54:53;;;;;;;6.35;3.88;;;;;;;9.72;72.04;96676.00;5107614;28;20846;-75
2021/10/24 09:57:21;;;;;;;6.43;4.18;;;;;;;9.73;69.92;96667.31;5107678;28;20791;-74
2021/10/24 09:59:49;;;;;;;8.87;4.23;;;;;;;10.06;68.57;96669.28;5107892;28;20846;-74
2021/10/24 10:02:18;;;;;;;7.70;3.60;;;;;;;10.22;68.36;96666.81;5107543;28;24612;-74
2021/10/24 10:04:45;;;;;;;5.65;3.78;;;;;;;10.17;68.37;96659.25;5111751;28;20758;-75
2021/10/24 10:07:12;;;;;;;6.80;3.75;;;;;;;10.52;67.06;96659.34;5127598;27;20783;-75
2021/10/24 10:09:39;;;;;;;8.63;3.92;;;;;;;10.19;67.37;96662.59;5127758;27;20824;-75
2021/10/24 10:12:07;;;;;;;7.10;4.00;;;;;;;10.07;67.57;96665.78;5127553;27;24425;-75
2021/10/24 10:14:35;;;;;;;4.90;3.22;;;;;;;10.11;68.03;96662.13;5127529;27;20798;-75
2021/10/24 10:17:04;;;;;;;5.30;3.73;;;;;;;9.79;69.46;96668.78;5119556;27;20753;-75
2021/10/24 10:19:32;;;;;;;6.28;3.53;;;;;;;10.06;67.88;96658.91;5113823;28;24463;-75
2021/10/24 10:22:25;;;;;;;4.80;3.40;;;;;;;10.15;69.69;96655.88;5113697;28;24834;-75
2021/10/24 10:24:56;;;;;;;5.35;3.53;;;;;;;10.00;68.46;96657.44;5113569;28;20839;-75
2021/10/24 10:27:42;;;;;;;4.93;3.65;;;;;;;9.78;69.86;96662.75;5113605;28;24429;-75
2021/10/24 10:30:11;;;;;;;10.67;3.77;;;;;;;9.69;71.80;96655.44;5113115;28;20755;-75
2021/10/24 10:32:40;;;;;;;4.43;3.35;;;;;;;9.99;72.15;96650.59;5113488;28;20899;-75
2021/10/24 10:35:09;;;;;;;7.00;3.77;;;;;;;10.58;69.20;96651.28;5113470;28;20779;-75
2021/10/24 10:37:50;;;;;;;6.53;4.43;;;;;;;10.30;68.02;96644.84;5113740;28;20749;-75
2021/10/24 10:40:18;;;;;;;7.40;3.80;;;;;;;10.36;68.05;96641.97;5113417;28;21159;-75
2021/10/24 10:42:54;;;;;;;7.30;4.25;;;;;;;9.93;69.92;96640.53;5113383;28;20843;-75
2021/10/24 10:45:43;;;;;;;6.55;4.30;;;;;;;10.11;70.91;96636.25;5112949;27;20659;-75
2021/10/24 10:48:23;;;;;;;6.95;4.20;;;;;;;10.18;70.48;96629.88;5113402;28;20638;-75
2021/10/24 10:50:54;;;;;;;7.40;4.38;;;;;;;10.04;70.94;96633.09;5113255;28;20773;-75
2021/10/24 10:54:02;;;;;;;7.47;4.50;;;;;;;10.04;70.38;96634.84;5113111;28;20665;-75
2021/10/24 10:56:48;;;;;;;5.28;4.00;;;;;;;10.01;70.81;96629.81;5112873;28;24424;-75
2021/10/24 10:59:28;;;;;;;6.85;4.32;;;;;;;9.88;72.16;96627.81;5112895;28;24974;-75
2021/10/24 11:01:54;;;;;;;8.33;4.53;;;;;;;9.98;72.05;96627.38;5112988;28;20901;-74
2021/10/24 11:04:22;;;;;;;7.30;4.18;;;;;;;9.94;72.25;96626.69;5112673;28;24958;-75
2021/10/24 11:06:54;;;;;;;7.63;4.20;;;;;;;9.96;72.23;96627.44;5112478;28;25031;-75
2021/10/24 11:09:43;;;;;;;4.90;3.97;;;;;;;10.02;73.27;96624.59;5112847;28;24485;-75
2021/10/24 11:12:11;;;;;;;6.25;4.20;;;;;;;10.02;72.23;96624.59;5112705;28;20750;-75
2021/10/24 11:14:46;;;;;;;4.50;3.97;;;;;;;9.98;73.22;96622.22;5112320;28;21340;-75
2021/10/24 11:17:39;;;;;;;7.53;4.10;;;;;;;9.84;73.05;96615.09;5112681;28;24426;-75
2021/10/24 11:20:20;;;;;;;5.60;4.10;;;;;;;10.07;74.19;96606.25;5112580;28;24424;-75
2021/10/24 11:22:53;;;;;;;5.63;4.00;;;;;;;10.40;76.83;96604.66;5112271;28;24488;-75
2021/10/24 11:25:28;;;;;;;5.80;4.03;;;;;;;10.50;72.49;96607.63;5112496;28;20770;-75
2021/10/24 11:27:55;;;;;;;6.22;4.15;;;;;;;10.41;71.58;96602.88;5111561;28;24985;-75
2021/10/24 11:30:24;;;;;;;5.57;3.97;;;;;;;10.37;72.17;96604.78;5112203;28;21299;-75
2021/10/24 11:32:54;;;;;;;9.35;3.70;;;;;;;10.51;72.20;96600.69;5112291;28;24938;-75
2021/10/24 11:35:24;;;;;;;4.72;3.78;;;;;;;10.36;71.98;96592.75;5111777;28;24414;-75
2021/10/24 11:37:52;;;;;;;6.80;3.90;;;;;;;10.64;70.98;96586.22;5112265;28;24421;-75
2021/10/24 11:40:21;;;;;;;5.32;3.88;;;;;;;10.62;70.61;96590.66;5112221;28;24432;-74
2021/10/24 11:43:00;;;;;;;5.63;3.90;;;;;;;11.17;69.29;96582.66;5112232;28;24417;-75
2021/10/24 11:45:32;;;;;;;6.57;3.92;;;;;;;11.19;69.79;96580.81;5111751;28;24540;-75
2021/10/24 11:48:01;;;;;;;4.67;3.30;;;;;;;11.16;70.13;96583.59;5112357;28;24429;-75